createdAt,value
2023-02-26T00:01:37.628Z,3.25
2023-02-26T00:04:08.742Z,3.40
2023-02-26T00:06:53.817Z,3.34
2023-02-26T00:09:26.076Z,3.21
2023-02-26T00:11:56.260Z,3.32
2023-02-26T00:14:26.197Z,3.16
2023-02-26T00:17:11.636Z,3.59
2023-02-26T00:19:41.540Z,3.54
2023-02-26T00:22:11.530Z,3.72
2023-02-26T00:24:41.066Z,3.93
2023-02-26T00:27:12.620Z,3.65
2023-02-26T00:29:42.900Z,3.95
2023-02-26T00:32:14.052Z,3.64
2023-02-26T00:34:44.750Z,3.90
2023-02-26T00:37:24.709Z,3.35
2023-02-26T00:40:03.083Z,3.31
2023-02-26T00:42:32.658Z,3.23
2023-02-26T00:45:02.503Z,3.35
2023-02-26T00:47:44.104Z,3.31
2023-02-26T00:50:18.245Z,3.40
2023-02-26T00:53:03.387Z,3.38
2023-02-26T00:55:32.826Z,3.31
2023-02-26T00:58:02.486Z,3.38
2023-02-26T01:00:31.987Z,3.27
2023-02-26T01:03:03.741Z,3.28
2023-02-26T01:05:33.382Z,3.00
2023-02-26T01:08:10.216Z,3.23
2023-02-26T01:10:40.474Z,3.06
2023-02-26T01:13:10.278Z,3.23
2023-02-26T01:15:40.311Z,3.05
2023-02-26T01:18:17.240Z,3.07
2023-02-26T01:20:49.770Z,3.08
2023-02-26T01:23:24.288Z,3.04
2023-02-26T01:25:58.991Z,3.06
2023-02-26T01:28:29.461Z,3.07
2023-02-26T01:31:05.612Z,2.93
2023-02-26T01:33:42.113Z,3.17
2023-02-26T01:36:18.112Z,3.35
2023-02-26T01:38:59.074Z,3.20
2023-02-26T01:41:34.430Z,3.16
2023-02-26T01:44:15.678Z,3.13
2023-02-26T01:47:08.038Z,3.15
2023-02-26T01:49:39.958Z,2.95
2023-02-26T01:52:57.689Z,3.28
2023-02-26T01:55:28.601Z,3.05
2023-02-26T01:58:02.490Z,3.18
2023-02-26T02:00:32.821Z,3.22
2023-02-26T02:03:02.878Z,3.21
2023-02-26T02:05:42.970Z,3.00
2023-02-26T02:08:13.852Z,2.91
2023-02-26T02:10:46.912Z,2.85
2023-02-26T02:13:27.023Z,2.83
2023-02-26T02:16:06.349Z,2.69
2023-02-26T02:18:43.638Z,2.56
2023-02-26T02:21:36.557Z,2.68
2023-02-26T02:24:13.252Z,2.86
2023-02-26T02:26:55.318Z,2.95
2023-02-26T02:29:55.960Z,2.85
2023-02-26T02:32:31.419Z,2.69
2023-02-26T02:35:08.590Z,2.99
2023-02-26T02:37:43.048Z,2.90
2023-02-26T02:40:16.984Z,2.97
2023-02-26T02:42:52.610Z,2.78
2023-02-26T02:45:27.394Z,2.59
2023-02-26T02:48:05.372Z,2.97
2023-02-26T02:50:41.610Z,2.86
2023-02-26T02:53:15.222Z,2.91
2023-02-26T02:55:48.084Z,3.27
2023-02-26T02:58:22.616Z,2.86
2023-02-26T03:00:56.175Z,2.89
2023-02-26T03:03:32.863Z,2.98
2023-02-26T03:06:02.911Z,2.91
2023-02-26T03:08:38.534Z,2.92
2023-02-26T03:11:07.850Z,2.59
2023-02-26T03:13:39.600Z,2.77
2023-02-26T03:16:31.013Z,2.91
2023-02-26T03:19:12.996Z,2.99
2023-02-26T03:21:51.276Z,2.92
2023-02-26T03:24:49.919Z,3.08
2023-02-26T03:27:23.850Z,3.05
2023-02-26T03:30:00.433Z,2.98
2023-02-26T03:32:35.750Z,2.77
2023-02-26T03:35:13.136Z,2.80
2023-02-26T03:37:46.724Z,2.90
2023-02-26T03:40:20.752Z,2.85
2023-02-26T03:42:55.341Z,3.07
2023-02-26T03:45:28.401Z,2.93
2023-02-26T03:47:59.902Z,2.83
2023-02-26T03:50:35.252Z,2.56
2023-02-26T03:53:32.120Z,2.86
2023-02-26T03:56:19.222Z,3.02
2023-02-26T03:58:54.814Z,3.09
2023-02-26T04:01:49.164Z,3.24
2023-02-26T04:04:27.131Z,3.11
2023-02-26T04:06:59.017Z,2.99
2023-02-26T04:09:28.416Z,2.97
2023-02-26T04:11:59.828Z,2.98
2023-02-26T04:14:29.749Z,2.80
2023-02-26T04:16:59.560Z,2.72
2023-02-26T04:19:29.312Z,3.00
2023-02-26T04:22:00.362Z,2.56
2023-02-26T04:24:29.592Z,3.08
2023-02-26T04:27:05.617Z,3.15
2023-02-26T04:29:36.063Z,3.20
2023-02-26T04:32:05.987Z,2.89
2023-02-26T04:34:35.535Z,2.79
2023-02-26T04:37:06.743Z,2.70
2023-02-26T04:39:36.758Z,2.98
2023-02-26T04:42:06.824Z,2.39
2023-02-26T04:44:36.630Z,2.67
2023-02-26T04:47:06.335Z,2.87
2023-02-26T04:49:38.845Z,3.06
2023-02-26T04:52:10.165Z,3.08
2023-02-26T04:54:40.860Z,2.75
2023-02-26T04:57:11.565Z,2.89
2023-02-26T04:59:41.341Z,2.75
2023-02-26T05:02:12.332Z,2.80
2023-02-26T05:04:44.239Z,3.00
2023-02-26T05:07:15.496Z,2.83
2023-02-26T05:09:45.268Z,3.03
2023-02-26T05:12:15.063Z,3.19
2023-02-26T05:14:44.892Z,3.10
2023-02-26T05:17:14.183Z,3.00
2023-02-26T05:19:44.202Z,3.04
2023-02-26T05:22:15.131Z,3.37
2023-02-26T05:24:45.074Z,3.20
2023-02-26T05:27:14.458Z,3.30
2023-02-26T05:29:48.048Z,3.25
2023-02-26T05:32:17.896Z,3.39
2023-02-26T05:34:47.537Z,3.39
2023-02-26T05:37:18.572Z,3.67
2023-02-26T05:39:48.079Z,3.25
2023-02-26T05:42:17.578Z,3.54
2023-02-26T05:44:47.482Z,3.58
2023-02-26T05:47:16.964Z,4.01
2023-02-26T05:49:46.517Z,3.68
2023-02-26T05:52:17.383Z,3.54
2023-02-26T05:54:46.889Z,3.46
2023-02-26T05:57:16.595Z,3.60
2023-02-26T05:59:46.116Z,3.62
2023-02-26T06:02:15.707Z,3.36
2023-02-26T06:04:45.158Z,3.48
2023-02-26T06:07:14.906Z,4.01
2023-02-26T06:09:45.789Z,3.19
2023-02-26T06:12:15.359Z,4.06
2023-02-26T06:14:44.957Z,3.76
2023-02-26T06:17:14.582Z,3.62
2023-02-26T06:19:44.888Z,3.90
2023-02-26T06:22:14.705Z,4.31
2023-02-26T06:24:45.742Z,4.30
2023-02-26T06:27:15.183Z,4.13
2023-02-26T06:29:44.977Z,4.43
2023-02-26T06:32:14.498Z,4.58
2023-02-26T06:34:44.082Z,3.86
2023-02-26T06:37:13.379Z,4.17
2023-02-26T06:39:43.184Z,4.16
2023-02-26T06:42:13.988Z,4.31
2023-02-26T06:44:43.436Z,4.63
2023-02-26T06:47:13.145Z,4.78
2023-02-26T06:49:42.710Z,4.83
2023-02-26T06:52:12.488Z,4.85
2023-02-26T06:54:42.194Z,4.28
2023-02-26T06:57:11.893Z,5.07
2023-02-26T06:59:43.094Z,5.27
2023-02-26T07:02:18.967Z,4.72
2023-02-26T07:04:50.773Z,4.50
2023-02-26T07:07:20.843Z,4.79
2023-02-26T07:09:50.217Z,4.71
2023-02-26T07:12:19.522Z,4.76
2023-02-26T07:14:53.078Z,4.15
2023-02-26T07:17:22.585Z,4.57
2023-02-26T07:19:53.943Z,4.89
2023-02-26T07:22:25.158Z,4.15
2023-02-26T07:24:56.251Z,3.91
2023-02-26T07:27:35.005Z,4.49
2023-02-26T07:30:08.773Z,4.72
2023-02-26T07:32:38.030Z,4.71
2023-02-26T07:35:08.484Z,4.92
2023-02-26T07:37:38.151Z,4.77
2023-02-26T07:40:08.920Z,4.85
2023-02-26T07:42:38.316Z,5.47
2023-02-26T07:45:12.562Z,5.67
2023-02-26T07:47:42.556Z,5.70
2023-02-26T07:50:15.732Z,5.49
2023-02-26T07:52:46.360Z,5.27
2023-02-26T07:55:16.018Z,5.70
2023-02-26T07:57:46.082Z,6.08
2023-02-26T08:00:22.349Z,5.34
2023-02-26T08:03:00.770Z,5.12
2023-02-26T08:05:30.780Z,5.88
2023-02-26T08:08:02.142Z,5.70
2023-02-26T08:10:35.437Z,6.67
2023-02-26T08:13:15.642Z,6.56
2023-02-26T08:15:53.759Z,5.51
2023-02-26T08:18:26.098Z,5.66
2023-02-26T08:20:55.564Z,5.79
2023-02-26T08:23:27.886Z,6.38
2023-02-26T08:26:02.749Z,6.17
2023-02-26T08:28:33.208Z,6.52
2023-02-26T08:31:04.675Z,7.02
2023-02-26T08:33:35.021Z,6.68
2023-02-26T08:36:04.511Z,6.54
2023-02-26T08:38:34.145Z,6.49
2023-02-26T08:41:03.759Z,6.85
2023-02-26T08:43:33.341Z,6.33
2023-02-26T08:46:03.981Z,5.50
2023-02-26T08:48:33.833Z,6.17
2023-02-26T08:51:03.364Z,6.46
2023-02-26T08:53:32.899Z,5.80
2023-02-26T08:56:02.810Z,5.94
2023-02-26T08:58:32.538Z,6.03
2023-02-26T09:01:03.005Z,6.23
2023-02-26T09:03:32.757Z,6.48
2023-02-26T09:06:02.220Z,6.06
2023-02-26T09:08:34.849Z,5.99
2023-02-26T09:11:05.852Z,6.25
2023-02-26T09:13:35.300Z,7.18
2023-02-26T09:16:07.558Z,6.12
2023-02-26T09:18:37.543Z,7.22
2023-02-26T09:21:07.186Z,6.72
2023-02-26T09:23:36.346Z,6.89
2023-02-26T09:26:08.963Z,7.24
2023-02-26T09:28:38.886Z,7.22
2023-02-26T09:31:10.088Z,7.30
2023-02-26T09:33:40.750Z,7.44
2023-02-26T09:36:10.734Z,7.82
2023-02-26T09:38:44.472Z,7.72
2023-02-26T09:41:21.351Z,7.40
2023-02-26T09:44:07.197Z,7.46
2023-02-26T09:46:46.990Z,7.50
2023-02-26T09:49:26.239Z,7.74
2023-02-26T09:52:02.268Z,7.99
2023-02-26T09:54:38.158Z,7.66
2023-02-26T09:57:13.659Z,7.68
2023-02-26T09:59:43.495Z,8.42
2023-02-26T10:02:23.262Z,8.29
2023-02-26T10:05:06.634Z,7.90
2023-02-26T10:07:45.534Z,7.90
2023-02-26T10:10:24.410Z,8.35
2023-02-26T10:12:57.105Z,8.67
2023-02-26T10:15:30.395Z,8.94
2023-02-26T10:18:10.877Z,9.08
2023-02-26T10:20:47.508Z,9.68
2023-02-26T10:23:23.191Z,8.77
2023-02-26T10:25:57.314Z,8.67
2023-02-26T10:28:43.093Z,8.20
2023-02-26T10:31:20.091Z,7.97
2023-02-26T10:33:59.681Z,8.46
2023-02-26T10:37:19.694Z,10.25
2023-02-26T10:39:53.631Z,10.03
2023-02-26T10:42:27.706Z,9.45
2023-02-26T10:45:10.730Z,9.32
2023-02-26T10:47:50.946Z,9.52
2023-02-26T10:50:23.835Z,9.11
2023-02-26T10:52:54.784Z,9.24
2023-02-26T10:55:34.527Z,9.40
2023-02-26T10:58:07.043Z,9.79
2023-02-26T11:00:37.267Z,9.50
2023-02-26T11:03:08.921Z,9.75
2023-02-26T11:05:41.079Z,9.59
2023-02-26T11:08:16.615Z,9.17
2023-02-26T11:10:55.060Z,8.37
2023-02-26T11:13:27.025Z,9.71
2023-02-26T11:15:59.447Z,9.57
2023-02-26T11:18:31.695Z,8.33
2023-02-26T11:21:02.449Z,9.47
2023-02-26T11:23:34.051Z,10.17
2023-02-26T11:26:21.017Z,9.25
2023-02-26T11:28:54.985Z,9.93
2023-02-26T11:31:29.083Z,10.40
2023-02-26T11:34:03.373Z,9.22
2023-02-26T11:36:38.628Z,9.07
2023-02-26T11:39:15.537Z,8.98
2023-02-26T11:41:48.417Z,9.06
2023-02-26T11:44:22.297Z,8.90
2023-02-26T11:46:57.669Z,8.78
2023-02-26T11:49:29.421Z,9.33
2023-02-26T11:52:21.247Z,9.68
2023-02-26T11:55:06.067Z,8.87
2023-02-26T11:57:35.894Z,10.16
2023-02-26T12:00:19.880Z,9.29
2023-02-26T12:02:49.387Z,11.38
2023-02-26T12:05:19.766Z,11.77
2023-02-26T12:07:50.815Z,11.54
2023-02-26T12:10:25.577Z,10.77
2023-02-26T12:13:06.481Z,9.84
2023-02-26T12:15:40.989Z,10.01
2023-02-26T12:18:31.908Z,10.63
2023-02-26T12:21:17.077Z,11.09
2023-02-26T12:24:37.201Z,9.86
2023-02-26T12:27:22.540Z,10.81
2023-02-26T12:30:05.110Z,11.20
2023-02-26T12:32:52.816Z,9.79
2023-02-26T12:35:44.949Z,10.47
2023-02-26T12:38:22.931Z,11.46
2023-02-26T12:41:09.792Z,11.61
2023-02-26T12:43:48.907Z,10.24
2023-02-26T12:46:35.999Z,10.96
2023-02-26T12:49:25.182Z,11.20
2023-02-26T12:52:16.312Z,9.69
2023-02-26T12:55:06.676Z,11.56
2023-02-26T12:57:51.952Z,13.24
2023-02-26T13:00:45.755Z,11.74
2023-02-26T13:03:37.034Z,11.33
2023-02-26T13:06:32.067Z,11.20
2023-02-26T13:09:09.237Z,9.30
2023-02-26T13:11:52.016Z,10.03
2023-02-26T13:14:34.933Z,9.28
2023-02-26T13:17:14.130Z,10.39
2023-02-26T13:19:53.949Z,12.58
2023-02-26T13:22:29.641Z,10.72
2023-02-26T13:25:03.622Z,11.11
2023-02-26T13:27:38.190Z,10.24
2023-02-26T13:30:25.325Z,10.66
2023-02-26T13:32:59.390Z,11.18
2023-02-26T13:35:33.638Z,10.17
2023-02-26T13:38:08.766Z,9.10
2023-02-26T13:40:49.304Z,9.67
2023-02-26T13:43:44.705Z,9.39
2023-02-26T13:46:29.770Z,9.71
2023-02-26T13:49:10.352Z,10.53
2023-02-26T13:51:43.210Z,10.09
2023-02-26T13:54:35.171Z,11.38
2023-02-26T13:57:22.882Z,11.86
2023-02-26T14:00:00.571Z,10.09
2023-02-26T14:02:39.520Z,10.80
2023-02-26T14:05:30.562Z,9.29
2023-02-26T14:08:23.334Z,9.83
2023-02-26T14:10:59.494Z,9.97
2023-02-26T14:13:37.644Z,9.51
2023-02-26T14:16:14.296Z,9.10
2023-02-26T14:18:52.001Z,8.91
2023-02-26T14:21:49.713Z,8.16
2023-02-26T14:24:24.520Z,8.64
2023-02-26T14:27:24.498Z,8.20
2023-02-26T14:30:05.316Z,8.70
2023-02-26T14:32:36.545Z,8.99
2023-02-26T14:35:11.462Z,9.39
2023-02-26T14:37:42.959Z,8.82
2023-02-26T14:40:19.173Z,7.93
2023-02-26T14:42:53.187Z,7.63
2023-02-26T14:45:31.747Z,7.54
2023-02-26T14:48:05.106Z,7.59
2023-02-26T14:50:42.962Z,8.24
2023-02-26T14:53:38.601Z,8.02
2023-02-26T14:56:16.218Z,7.75
2023-02-26T14:59:01.784Z,7.20
2023-02-26T15:01:46.420Z,7.73
2023-02-26T15:04:45.368Z,7.44
2023-02-26T15:07:35.556Z,7.66
2023-02-26T15:10:18.506Z,7.37
2023-02-26T15:13:05.304Z,7.77
2023-02-26T15:15:44.531Z,7.22
2023-02-26T15:18:37.082Z,7.11
2023-02-26T15:21:15.235Z,7.32
2023-02-26T15:23:48.983Z,7.30
2023-02-26T15:26:23.209Z,7.37
2023-02-26T15:28:53.588Z,7.30
2023-02-26T15:31:30.559Z,7.10
2023-02-26T15:34:03.177Z,7.29
2023-02-26T15:36:33.371Z,7.24
2023-02-26T15:39:10.476Z,7.16
2023-02-26T15:41:49.920Z,6.78
2023-02-26T15:44:26.514Z,6.63
2023-02-26T15:47:00.503Z,6.73
2023-02-26T15:49:35.996Z,7.20
2023-02-26T15:52:08.467Z,7.11
2023-02-26T15:54:43.368Z,7.16
2023-02-26T15:57:16.098Z,7.12
2023-02-26T15:59:47.595Z,7.20
2023-02-26T16:02:21.353Z,6.82
2023-02-26T16:04:53.173Z,7.40
2023-02-26T16:07:23.691Z,7.09
2023-02-26T16:09:55.265Z,6.80
2023-02-26T16:12:36.452Z,6.74
2023-02-26T16:15:12.509Z,6.47
2023-02-26T16:17:46.122Z,6.57
2023-02-26T16:20:20.727Z,6.64
2023-02-26T16:22:52.260Z,7.13
2023-02-26T16:25:30.278Z,7.31
2023-02-26T16:28:04.387Z,7.29
2023-02-26T16:30:36.664Z,7.19
2023-02-26T16:33:10.908Z,6.67
2023-02-26T16:35:43.893Z,6.81
2023-02-26T16:38:20.672Z,6.97
2023-02-26T16:40:58.676Z,6.92
2023-02-26T16:43:51.520Z,6.89
2023-02-26T16:46:24.886Z,6.75
2023-02-26T16:48:56.673Z,6.87
2023-02-26T16:51:30.190Z,6.84
2023-02-26T16:54:03.283Z,6.68
2023-02-26T16:56:35.878Z,6.52
2023-02-26T16:59:13.423Z,6.81
2023-02-26T17:01:52.250Z,6.62
2023-02-26T17:04:24.901Z,6.67
2023-02-26T17:06:56.275Z,6.73
2023-02-26T17:09:39.282Z,6.92
2023-02-26T17:12:15.705Z,6.62
2023-02-26T17:14:50.037Z,6.55
2023-02-26T17:17:19.915Z,6.49
2023-02-26T17:19:49.977Z,6.36
2023-02-26T17:22:25.846Z,6.53
2023-02-26T17:24:56.320Z,6.72
2023-02-26T17:27:30.201Z,6.41
2023-02-26T17:30:07.134Z,6.27
2023-02-26T17:32:36.732Z,6.45
2023-02-26T17:35:08.736Z,6.30
2023-02-26T17:37:39.810Z,6.17
2023-02-26T17:40:20.730Z,6.17
2023-02-26T17:42:50.773Z,6.38
2023-02-26T17:45:22.924Z,6.43
2023-02-26T17:47:53.184Z,6.27
2023-02-26T17:50:36.632Z,6.57
2023-02-26T17:53:08.018Z,6.87
2023-02-26T17:55:39.461Z,6.36
2023-02-26T17:58:15.820Z,6.72
2023-02-26T18:00:49.913Z,6.85
2023-02-26T18:03:20.434Z,6.33
2023-02-26T18:05:52.217Z,6.09
2023-02-26T18:08:24.058Z,6.31
2023-02-26T18:10:55.070Z,6.08
2023-02-26T18:13:24.984Z,6.56
2023-02-26T18:15:58.351Z,6.30
2023-02-26T18:18:29.253Z,6.27
2023-02-26T18:20:58.787Z,6.48
2023-02-26T18:23:28.788Z,6.03
2023-02-26T18:25:59.588Z,6.01
2023-02-26T18:28:30.170Z,5.92
2023-02-26T18:31:09.082Z,6.13
2023-02-26T18:33:41.377Z,6.28
2023-02-26T18:36:18.350Z,6.45
2023-02-26T18:38:49.140Z,6.06
2023-02-26T18:41:19.191Z,6.12
2023-02-26T18:43:49.066Z,6.35
2023-02-26T18:46:20.486Z,6.06
2023-02-26T18:48:50.810Z,6.33
2023-02-26T18:51:20.454Z,6.00
2023-02-26T18:53:51.650Z,6.24
2023-02-26T18:56:40.107Z,6.38
2023-02-26T18:59:09.708Z,6.21
2023-02-26T19:01:40.766Z,6.11
2023-02-26T19:04:10.569Z,6.25
2023-02-26T19:06:40.352Z,6.08
2023-02-26T19:09:10.600Z,5.81
2023-02-26T19:11:40.232Z,6.00
2023-02-26T19:14:10.573Z,5.85
2023-02-26T19:16:43.816Z,5.82
2023-02-26T19:19:13.172Z,5.71
2023-02-26T19:21:43.226Z,5.79
2023-02-26T19:24:14.286Z,5.60
2023-02-26T19:26:44.956Z,6.00
2023-02-26T19:29:17.262Z,5.83
2023-02-26T19:31:48.578Z,6.21
2023-02-26T19:34:19.924Z,6.15
2023-02-26T19:36:50.076Z,6.14
2023-02-26T19:39:20.284Z,6.22
2023-02-26T19:41:53.890Z,6.16
2023-02-26T19:44:24.419Z,6.16
2023-02-26T19:46:55.751Z,6.21
2023-02-26T19:49:25.357Z,6.34
2023-02-26T19:51:57.241Z,6.34
2023-02-26T19:54:27.332Z,6.27
2023-02-26T19:56:59.333Z,6.10
2023-02-26T19:59:29.816Z,5.55
2023-02-26T20:02:01.179Z,5.95
2023-02-26T20:04:30.556Z,6.00
2023-02-26T20:07:01.051Z,5.79
2023-02-26T20:09:36.342Z,5.43
2023-02-26T20:12:07.139Z,5.68
2023-02-26T20:14:38.707Z,5.70
2023-02-26T20:17:13.370Z,5.71
2023-02-26T20:20:15.414Z,5.91
2023-02-26T20:22:46.343Z,5.78
2023-02-26T20:25:16.276Z,5.64
2023-02-26T20:27:47.076Z,5.54
2023-02-26T20:30:17.793Z,5.51
2023-02-26T20:33:17.653Z,5.66
2023-02-26T20:35:55.924Z,5.58
2023-02-26T20:38:30.199Z,5.41
2023-02-26T20:41:00.309Z,5.38
2023-02-26T20:43:30.521Z,5.27
2023-02-26T20:46:00.973Z,5.00
2023-02-26T20:48:32.258Z,5.31
2023-02-26T20:51:02.694Z,5.14
2023-02-26T20:53:32.724Z,5.39
2023-02-26T20:56:02.465Z,5.31
2023-02-26T20:58:32.537Z,5.22
2023-02-26T21:01:02.660Z,5.43
2023-02-26T21:03:34.159Z,5.29
2023-02-26T21:06:03.837Z,5.33
2023-02-26T21:08:34.996Z,5.25
2023-02-26T21:11:04.802Z,5.43
2023-02-26T21:13:34.370Z,5.32
2023-02-26T21:16:04.551Z,5.40
2023-02-26T21:18:35.513Z,5.47
2023-02-26T21:21:05.362Z,5.36
2023-02-26T21:23:35.418Z,5.44
2023-02-26T21:26:05.192Z,5.24
2023-02-26T21:28:34.691Z,5.19
2023-02-26T21:31:04.878Z,4.95
2023-02-26T21:33:36.705Z,5.04
2023-02-26T21:36:07.503Z,4.91
2023-02-26T21:38:37.077Z,5.16
2023-02-26T21:41:07.196Z,5.40
2023-02-26T21:43:37.152Z,4.85
2023-02-26T21:46:07.761Z,4.63
2023-02-26T21:48:52.065Z,4.83
2023-02-26T21:51:21.670Z,4.91
2023-02-26T21:53:51.422Z,4.65
2023-02-26T21:56:20.878Z,4.76
2023-02-26T21:58:50.506Z,4.71
2023-02-26T22:01:20.325Z,4.34
2023-02-26T22:03:51.287Z,3.66
2023-02-26T22:06:21.010Z,4.38
2023-02-26T22:08:50.274Z,4.44
2023-02-26T22:11:19.779Z,4.33
2023-02-26T22:13:49.446Z,4.00
2023-02-26T22:16:19.133Z,4.29
2023-02-26T22:18:48.688Z,4.53
2023-02-26T22:21:20.071Z,4.64
2023-02-26T22:23:49.965Z,4.45
2023-02-26T22:26:19.507Z,4.50
2023-02-26T22:28:48.963Z,4.61
2023-02-26T22:31:18.280Z,4.55
2023-02-26T22:33:51.003Z,4.39
2023-02-26T22:36:21.769Z,3.83
2023-02-26T22:38:51.538Z,4.10
2023-02-26T22:41:22.082Z,3.83
2023-02-26T22:43:53.941Z,4.10
2023-02-26T22:46:24.673Z,3.41
2023-02-26T22:48:54.184Z,3.38
2023-02-26T22:51:25.315Z,3.87
2023-02-26T22:53:55.446Z,3.81
2023-02-26T22:56:25.026Z,3.53
2023-02-26T22:58:55.663Z,3.68
2023-02-26T23:01:25.941Z,3.31
2023-02-26T23:03:55.677Z,3.74
2023-02-26T23:06:26.863Z,3.80
2023-02-26T23:08:56.242Z,3.49
2023-02-26T23:11:25.779Z,3.34
2023-02-26T23:13:56.248Z,3.35
2023-02-26T23:16:28.810Z,3.34
2023-02-26T23:18:58.230Z,3.15
2023-02-26T23:21:30.991Z,3.45
2023-02-26T23:24:00.608Z,2.95
2023-02-26T23:26:30.143Z,3.17
2023-02-26T23:28:59.767Z,3.45
2023-02-26T23:31:29.946Z,3.34
2023-02-26T23:33:59.801Z,3.19
2023-02-26T23:36:30.383Z,3.13
2023-02-26T23:38:59.575Z,3.08
2023-02-26T23:41:28.733Z,2.71
2023-02-26T23:43:58.782Z,2.89
2023-02-26T23:46:28.833Z,2.46
2023-02-26T23:48:58.551Z,2.42
2023-02-26T23:51:29.328Z,2.09
2023-02-26T23:53:59.275Z,2.85
2023-02-26T23:56:28.907Z,2.32
2023-02-26T23:58:59.000Z,2.66
